Time;durP1;ratioP1;P1;durP2;ratioP2;P2;SDS_P1;SDS_P2;PMS_P1;PMS_P2;Temp;Humidity;BMP_temperature;BMP_pressure;BME280_temperature;BME280_humidity;BME280_pressure;Samples;Min_cycle;Max_cycle;Signal;HPM_P1;HPM_P2
2022/01/19 00:02:00;;;;;;;4.20;3.63;;;2.30;99.90;;;;;;5012375;28;20028;-68
2022/01/19 00:04:26;;;;;;;9.05;3.97;;;2.30;99.90;;;;;;5009048;28;20029;-68
2022/01/19 00:06:52;;;;;;;5.78;3.97;;;2.30;99.90;;;;;;5015042;28;20398;-68
2022/01/19 00:09:18;;;;;;;9.75;4.88;;;2.30;99.90;;;;;;5011047;28;20044;-68
2022/01/19 00:11:43;;;;;;;4.45;3.20;;;2.30;99.90;;;;;;5010206;28;20073;-68
2022/01/19 00:14:09;;;;;;;7.75;4.13;;;2.30;99.90;;;;;;5034159;28;20409;-68
2022/01/19 00:16:34;;;;;;;5.65;3.83;;;2.20;99.90;;;;;;5010802;28;20102;-68
2022/01/19 00:19:00;;;;;;;6.05;3.88;;;2.20;99.90;;;;;;5015853;28;20378;-69
2022/01/19 00:21:26;;;;;;;4.90;4.35;;;2.20;99.90;;;;;;5011643;28;20497;-68
2022/01/19 00:23:52;;;;;;;6.43;3.90;;;2.20;99.90;;;;;;5021538;28;20127;-68
2022/01/19 00:26:18;;;;;;;4.63;3.80;;;2.20;99.90;;;;;;5028704;28;20075;-70
2022/01/19 00:28:43;;;;;;;6.15;3.80;;;2.20;99.90;;;;;;5024450;28;20425;-68
2022/01/19 00:31:09;;;;;;;5.63;4.25;;;2.10;99.90;;;;;;5009282;28;20144;-68
2022/01/19 00:33:36;;;;;;;9.88;4.82;;;2.10;99.90;;;;;;5018472;28;20109;-68
2022/01/19 00:36:02;;;;;;;6.75;4.40;;;2.10;99.90;;;;;;5015624;28;20041;-69
2022/01/19 00:38:28;;;;;;;8.13;4.85;;;2.10;99.90;;;;;;5017991;28;20482;-68
2022/01/19 00:40:55;;;;;;;8.23;4.38;;;2.00;99.90;;;;;;5029724;28;20504;-68
2022/01/19 00:43:21;;;;;;;9.82;4.75;;;2.10;99.90;;;;;;5013753;28;20036;-68
2022/01/19 00:45:46;;;;;;;6.90;4.75;;;2.00;99.90;;;;;;5022917;28;20033;-68
2022/01/19 00:48:12;;;;;;;9.32;5.47;;;2.10;99.90;;;;;;5022533;28;20052;-68
2022/01/19 00:50:38;;;;;;;6.15;4.90;;;2.10;99.90;;;;;;5014248;28;20133;-68
2022/01/19 00:53:03;;;;;;;8.75;5.78;;;2.10;99.90;;;;;;5016856;28;20030;-68
2022/01/19 00:55:29;;;;;;;8.00;5.68;;;2.00;99.90;;;;;;5029851;28;20037;-68
2022/01/19 00:57:55;;;;;;;10.20;5.85;;;2.00;99.90;;;;;;5021397;28;20029;-68
2022/01/19 01:00:24;;;;;;;8.43;5.60;;;2.00;99.90;;;;;;5011976;28;20048;-68
2022/01/19 01:02:50;;;;;;;9.50;5.57;;;2.00;99.90;;;;;;5011311;28;20026;-68
2022/01/19 01:05:16;;;;;;;8.27;5.82;;;2.00;99.90;;;;;;5013173;28;20045;-68
2022/01/19 01:07:42;;;;;;;11.77;6.47;;;1.90;99.90;;;;;;5021445;28;20319;-68
2022/01/19 01:10:11;;;;;;;9.25;6.53;;;1.90;99.90;;;;;;5018870;28;20037;-68
2022/01/19 01:20:30;;;;;;;8.15;5.97;;;1.90;99.90;;;;;;5024160;28;20197;-68
2022/01/19 01:22:56;;;;;;;11.90;6.93;;;1.90;99.90;;;;;;5008839;28;20031;-68
2022/01/19 01:25:22;;;;;;;10.50;6.38;;;1.90;99.90;;;;;;5008713;28;20053;-68
2022/01/19 01:27:48;;;;;;;9.45;6.68;;;1.90;99.90;;;;;;5010256;28;20025;-68
2022/01/19 01:30:14;;;;;;;9.68;5.85;;;1.80;99.90;;;;;;5012455;28;20034;-68
2022/01/19 01:32:40;;;;;;;12.55;6.70;;;1.80;99.90;;;;;;5009014;28;20053;-69
2022/01/19 01:35:07;;;;;;;13.07;6.95;;;1.80;99.90;;;;;;5005968;28;20508;-69
2022/01/19 01:37:33;;;;;;;9.10;6.13;;;1.80;99.90;;;;;;5006995;28;20115;-68
2022/01/19 01:40:01;;;;;;;9.48;6.60;;;1.70;99.90;;;;;;5000620;28;20066;-69
2022/01/19 01:42:27;;;;;;;10.95;5.97;;;1.70;99.90;;;;;;5005811;28;20045;-68
2022/01/19 01:44:56;;;;;;;10.07;6.43;;;1.70;99.90;;;;;;5016499;28;20401;-68
2022/01/19 01:47:22;;;;;;;12.48;7.07;;;1.70;99.90;;;;;;5014813;28;20033;-68
2022/01/19 01:55:14;;;;;;;11.32;7.05;;;1.70;99.90;;;;;;5018593;28;20374;-67
2022/01/19 01:57:40;;;;;;;14.77;6.72;;;1.60;99.90;;;;;;5013656;28;20029;-67
2022/01/19 02:00:11;;;;;;;10.93;6.47;;;1.60;99.90;;;;;;5013910;28;20044;-67
2022/01/19 02:02:37;;;;;;;10.75;6.90;;;1.60;99.90;;;;;;5013689;28;20159;-67
2022/01/19 02:05:03;;;;;;;13.98;6.50;;;1.60;99.90;;;;;;5013090;28;20087;-67
2022/01/19 02:07:32;;;;;;;10.57;6.85;;;1.60;99.90;;;;;;5011237;28;20030;-67
2022/01/19 02:10:02;;;;;;;10.93;7.18;;;1.50;99.90;;;;;;5017610;28;20112;-68
2022/01/19 02:23:28;;;;;;;10.65;7.15;;;1.30;99.90;;;;;;5023446;28;20112;-67
2022/01/19 02:25:58;;;;;;;14.02;8.00;;;1.20;99.90;;;;;;5026295;28;20482;-67
2022/01/19 02:41:35;;;;;;;10.50;7.15;;;1.10;99.90;;;;;;5045297;28;20031;-67
2022/01/19 02:44:01;;;;;;;10.98;7.70;;;1.10;99.90;;;;;;5025649;28;20489;-67
2022/01/19 02:46:51;;;;;;;13.02;7.53;;;1.00;99.90;;;;;;5020901;28;20029;-67
2022/01/19 02:49:18;;;;;;;11.73;7.97;;;1.00;99.90;;;;;;5032283;28;20029;-67
2022/01/19 02:51:49;;;;;;;13.32;7.75;;;1.00;99.90;;;;;;5013623;28;20037;-67
2022/01/19 02:54:16;;;;;;;12.20;7.40;;;1.00;99.90;;;;;;5016855;28;20032;-68
2022/01/19 02:56:47;;;;;;;12.52;7.90;;;1.00;99.90;;;;;;5017530;28;20021;-68
2022/01/19 02:59:17;;;;;;;14.07;7.85;;;0.90;99.90;;;;;;5026238;28;20121;-68
2022/01/19 03:09:45;;;;;;;10.57;7.25;;;0.90;99.90;;;;;;5031156;28;20029;-67
2022/01/19 03:12:11;;;;;;;10.90;7.78;;;0.80;99.90;;;;;;5020275;28;20040;-67
2022/01/19 03:14:38;;;;;;;12.82;7.93;;;0.80;99.90;;;;;;5021771;28;20036;-68
2022/01/19 03:17:05;;;;;;;13.73;8.25;;;0.70;99.90;;;;;;5020454;28;20033;-68
2022/01/19 03:19:33;;;;;;;12.18;8.15;;;0.70;99.90;;;;;;5016742;28;20473;-68
2022/01/19 03:21:59;;;;;;;15.73;8.98;;;0.60;99.90;;;;;;5014180;28;20022;-68
2022/01/19 03:24:25;;;;;;;15.50;8.52;;;0.60;99.90;;;;;;5020442;28;20845;-68
2022/01/19 03:26:51;;;;;;;16.48;9.52;;;0.50;99.90;;;;;;5041695;28;20104;-68
2022/01/19 03:29:18;;;;;;;14.10;9.48;;;0.50;99.90;;;;;;5012821;28;20104;-67
2022/01/19 03:31:44;;;;;;;18.48;9.98;;;0.50;99.90;;;;;;5021040;28;20029;-67
2022/01/19 03:34:11;;;;;;;19.70;9.45;;;0.50;99.90;;;;;;5012804;28;20030;-68
2022/01/19 03:36:37;;;;;;;15.02;9.73;;;0.50;99.90;;;;;;5006845;28;20466;-68
2022/01/19 03:39:04;;;;;;;16.40;8.98;;;0.50;99.90;;;;;;5024340;28;20083;-68
2022/01/19 03:41:30;;;;;;;17.45;9.43;;;0.50;99.90;;;;;;5030564;28;20024;-68
2022/01/19 03:43:56;;;;;;;15.40;10.07;;;0.40;99.90;;;;;;5011462;28;20557;-68
2022/01/19 03:46:29;;;;;;;17.60;10.40;;;0.40;99.90;;;;;;5023937;28;20053;-68
2022/01/19 03:48:57;;;;;;;22.00;10.07;;;0.40;99.90;;;;;;5004574;28;20508;-68
2022/01/19 03:51:24;;;;;;;18.70;10.75;;;0.40;99.90;;;;;;5038406;23;20060;-69
2022/01/19 03:53:50;;;;;;;16.33;10.18;;;0.40;99.90;;;;;;5054942;28;20025;-67
2022/01/19 03:56:17;;;;;;;14.48;9.00;;;0.40;99.90;;;;;;5024601;28;20041;-67
2022/01/19 03:58:44;;;;;;;15.02;9.30;;;0.40;99.90;;;;;;5031268;28;20499;-67
2022/01/19 04:01:10;;;;;;;15.48;9.80;;;0.40;99.90;;;;;;5043104;28;20075;-67
2022/01/19 04:06:39;;;;;;;19.25;9.48;;;0.40;99.90;;;;;;5050385;28;20056;-67
2022/01/19 04:09:05;;;;;;;15.43;9.38;;;0.40;99.90;;;;;;5030278;28;20545;-67
2022/01/19 04:11:31;;;;;;;15.25;9.52;;;0.40;99.90;;;;;;5032223;28;20111;-67
2022/01/19 04:16:22;;;;;;;19.45;9.90;;;0.40;99.90;;;;;;5050227;28;20035;-67
2022/01/19 04:18:49;;;;;;;17.05;9.73;;;0.40;99.90;;;;;;5035717;28;20036;-67
2022/01/19 04:21:14;;;;;;;15.00;9.18;;;0.40;99.90;;;;;;5032075;28;20021;-67
2022/01/19 04:23:40;;;;;;;16.52;9.55;;;0.30;99.90;;;;;;5029093;28;20025;-67
2022/01/19 04:26:06;;;;;;;15.27;9.50;;;0.30;99.90;;;;;;5032299;28;20164;-67
2022/01/19 04:28:33;;;;;;;13.48;8.70;;;0.30;99.90;;;;;;5032805;28;20036;-67
2022/01/19 04:30:59;;;;;;;14.63;8.88;;;0.30;99.90;;;;;;5035473;28;20029;-67
2022/01/19 04:33:27;;;;;;;15.52;9.30;;;0.30;99.90;;;;;;5032068;28;20386;-67
2022/01/19 04:35:55;;;;;;;16.05;8.90;;;0.20;99.90;;;;;;5031559;28;20044;-68
2022/01/19 05:01:32;;;;;;;19.20;10.50;;;-0.40;99.90;;;;;;5049587;28;20446;-68
2022/01/19 05:07:59;;;;;;;19.38;11.55;;;-0.40;99.90;;;;;;5048867;28;20532;-67
2022/01/19 05:15:50;;;;;;;23.30;12.18;;;-0.40;99.90;;;;;;5055159;28;20062;-70
2022/01/19 05:18:17;;;;;;;21.95;11.77;;;-0.40;99.90;;;;;;5030116;28;20033;-67
2022/01/19 05:20:44;;;;;;;19.08;11.25;;;-0.40;99.90;;;;;;5033729;28;20485;-67
2022/01/19 05:23:11;;;;;;;20.52;11.38;;;-0.40;99.90;;;;;;5034645;28;20025;-67
2022/01/19 05:25:37;;;;;;;21.58;12.25;;;-0.40;99.90;;;;;;5035325;28;20029;-68
2022/01/19 05:28:03;;;;;;;22.30;12.02;;;-0.40;99.90;;;;;;5038967;28;20024;-67
2022/01/19 05:30:29;;;;;;;23.40;12.05;;;-0.50;99.90;;;;;;5035861;28;20484;-67
2022/01/19 05:32:54;;;;;;;22.02;12.02;;;-0.50;99.90;;;;;;5035677;28;20032;-67
2022/01/19 05:35:20;;;;;;;27.73;12.45;;;-0.50;99.90;;;;;;5036176;28;20033;-67
2022/01/19 05:37:46;;;;;;;22.63;11.88;;;-0.50;99.90;;;;;;5033452;28;20509;-67
2022/01/19 05:40:16;;;;;;;23.65;12.82;;;-0.50;99.90;;;;;;5035638;28;20025;-67
2022/01/19 05:42:42;;;;;;;23.70;12.15;;;-0.50;99.90;;;;;;5032619;28;20098;-67
2022/01/19 05:45:09;;;;;;;22.45;12.40;;;-0.40;99.90;;;;;;5027077;28;20054;-68
2022/01/19 05:47:35;;;;;;;23.48;11.63;;;-0.40;99.90;;;;;;5048038;28;20053;-68
2022/01/19 05:50:00;;;;;;;19.38;11.52;;;-0.40;99.90;;;;;;5035457;28;20071;-67
2022/01/19 05:52:26;;;;;;;25.70;12.27;;;-0.40;99.90;;;;;;5049965;28;20098;-67
2022/01/19 05:54:52;;;;;;;23.58;10.98;;;-0.40;99.90;;;;;;5034873;28;20032;-67
2022/01/19 05:57:18;;;;;;;23.23;11.60;;;-0.40;99.90;;;;;;5034998;28;20025;-67
2022/01/19 05:59:43;;;;;;;22.15;11.00;;;-0.40;99.90;;;;;;5035139;28;20025;-67
2022/01/19 06:02:09;;;;;;;19.35;10.80;;;-0.40;99.90;;;;;;5034477;28;20473;-67
2022/01/19 06:04:35;;;;;;;19.27;10.57;;;-0.40;99.90;;;;;;5036335;28;20481;-67
2022/01/19 06:07:02;;;;;;;21.35;11.50;;;-0.30;99.90;;;;;;5034247;28;20033;-67
2022/01/19 06:12:12;;;;;;;19.90;10.30;;;-0.30;99.90;;;;;;5051944;28;20028;-67
2022/01/19 06:14:43;;;;;;;18.10;10.45;;;-0.30;99.90;;;;;;5034741;28;20024;-67
2022/01/19 06:17:11;;;;;;;23.42;10.77;;;-0.30;99.90;;;;;;5034549;28;20400;-67
2022/01/19 06:19:38;;;;;;;23.05;11.00;;;-0.30;99.90;;;;;;5034848;28;20056;-67
2022/01/19 06:22:04;;;;;;;23.45;10.43;;;-0.30;99.90;;;;;;5034535;28;20028;-67
2022/01/19 06:24:30;;;;;;;19.85;9.35;;;-0.30;99.90;;;;;;5044391;28;20033;-67
2022/01/19 06:26:56;;;;;;;19.38;10.23;;;-0.30;99.90;;;;;;5034371;28;20032;-67
2022/01/19 06:29:22;;;;;;;16.58;9.15;;;-0.20;99.90;;;;;;5037182;28;20053;-67
2022/01/19 06:31:48;;;;;;;18.23;9.57;;;-0.20;99.90;;;;;;5042894;28;20065;-67
2022/01/19 06:34:14;;;;;;;20.63;10.52;;;-0.20;99.90;;;;;;5035442;28;20032;-67
2022/01/19 06:36:40;;;;;;;25.48;12.32;;;-0.20;99.90;;;;;;5037994;28;20020;-67
2022/01/19 06:39:06;;;;;;;18.90;10.27;;;-0.10;99.90;;;;;;5034120;28;20029;-67
2022/01/19 06:41:32;;;;;;;21.85;10.75;;;-0.20;99.90;;;;;;5034487;28;20021;-67
2022/01/19 06:43:57;;;;;;;20.30;9.65;;;-0.20;99.90;;;;;;5034893;28;20044;-67
2022/01/19 06:46:23;;;;;;;22.95;10.05;;;-0.20;99.90;;;;;;5040785;28;20024;-67
2022/01/19 06:48:49;;;;;;;17.85;9.50;;;-0.10;99.90;;;;;;5034343;28;20086;-68
2022/01/19 06:51:15;;;;;;;21.45;10.43;;;-0.10;99.90;;;;;;5042669;28;20547;-68
2022/01/19 06:53:40;;;;;;;23.02;11.88;;;-0.10;99.90;;;;;;5030940;28;20433;-68
2022/01/19 06:56:06;;;;;;;20.63;10.80;;;-0.10;99.90;;;;;;5048000;28;20032;-66
2022/01/19 06:58:32;;;;;;;18.17;10.70;;;-0.10;99.90;;;;;;5034333;28;20036;-67
2022/01/19 07:00:57;;;;;;;22.15;11.82;;;-0.10;99.90;;;;;;5034042;28;20468;-67
2022/01/19 07:03:24;;;;;;;22.77;12.60;;;-0.10;99.90;;;;;;5041395;28;20398;-67
2022/01/19 07:05:50;;;;;;;20.83;11.13;;;-0.10;99.90;;;;;;5033554;28;20035;-67
2022/01/19 07:08:16;;;;;;;20.90;10.90;;;-0.10;99.90;;;;;;5051881;28;20032;-67
2022/01/19 07:10:41;;;;;;;21.25;10.82;;;-0.20;99.90;;;;;;5033692;28;20032;-67
2022/01/19 07:13:07;;;;;;;23.08;11.13;;;-0.20;99.90;;;;;;5038720;28;20032;-67
2022/01/19 07:15:33;;;;;;;18.90;10.27;;;-0.20;99.90;;;;;;5045379;28;20074;-68
2022/01/19 07:17:59;;;;;;;24.25;12.70;;;-0.20;99.90;;;;;;5043431;28;20112;-67
2022/01/19 07:20:25;;;;;;;23.77;13.63;;;-0.20;99.90;;;;;;5054389;28;20584;-67
2022/01/19 07:22:51;;;;;;;24.02;13.07;;;-0.20;99.90;;;;;;5040969;28;20119;-67
2022/01/19 07:25:17;;;;;;;21.70;13.77;;;-0.20;99.90;;;;;;5033985;28;20043;-67
2022/01/19 07:27:43;;;;;;;23.50;12.32;;;-0.20;99.90;;;;;;5033410;28;20091;-67
2022/01/19 07:30:10;;;;;;;24.35;11.88;;;-0.10;99.90;;;;;;5033989;28;20025;-67
2022/01/19 07:32:37;;;;;;;17.27;10.75;;;-0.10;99.90;;;;;;5034078;28;20521;-66
2022/01/19 07:35:04;;;;;;;22.67;10.90;;;0.00;99.90;;;;;;5033488;28;20033;-67
2022/01/19 07:37:30;;;;;;;22.70;11.20;;;0.00;99.90;;;;;;5033412;28;20025;-67
2022/01/19 07:39:57;;;;;;;20.95;11.68;;;0.00;99.90;;;;;;5034135;28;20078;-67
2022/01/19 07:42:23;;;;;;;22.67;10.63;;;0.00;99.90;;;;;;5029044;28;20025;-67
2022/01/19 07:44:49;;;;;;;16.70;9.68;;;0.00;99.90;;;;;;5031222;28;20044;-67
2022/01/19 07:47:15;;;;;;;25.60;12.23;;;0.10;99.90;;;;;;5035101;28;20126;-67
2022/01/19 07:49:41;;;;;;;20.00;11.00;;;0.10;99.90;;;;;;5039833;28;20025;-67
2022/01/19 07:52:07;;;;;;;18.80;10.60;;;0.10;99.90;;;;;;5033871;28;20090;-67
2022/01/19 07:54:32;;;;;;;17.77;10.18;;;0.10;99.90;;;;;;5050050;28;20048;-67
2022/01/19 07:56:58;;;;;;;22.35;11.18;;;0.20;99.90;;;;;;5033498;28;20033;-67
2022/01/19 07:59:24;;;;;;;17.23;9.82;;;0.20;99.90;;;;;;5033112;28;20033;-67
2022/01/19 08:01:50;;;;;;;17.67;9.70;;;0.20;99.90;;;;;;5033203;28;20032;-67
2022/01/19 08:04:15;;;;;;;20.83;10.18;;;0.20;99.90;;;;;;5033530;28;20029;-67
2022/01/19 08:06:41;;;;;;;17.33;11.13;;;0.30;99.90;;;;;;5033252;28;20048;-67
2022/01/19 08:09:07;;;;;;;19.33;11.25;;;0.30;99.90;;;;;;5033245;28;20167;-67
2022/01/19 08:11:33;;;;;;;24.42;11.90;;;0.40;99.90;;;;;;5040055;28;20142;-67
2022/01/19 08:13:59;;;;;;;23.30;11.30;;;0.40;99.90;;;;;;5031757;28;20110;-67
2022/01/19 08:16:24;;;;;;;20.52;12.48;;;0.40;99.90;;;;;;5032678;28;20017;-67
2022/01/19 08:18:51;;;;;;;26.38;12.73;;;0.40;99.90;;;;;;5031728;28;20060;-67
2022/01/19 08:21:16;;;;;;;24.95;13.27;;;0.40;99.90;;;;;;5048934;28;20024;-67
2022/01/19 08:23:42;;;;;;;24.85;12.68;;;0.50;99.90;;;;;;5031871;28;20029;-67
2022/01/19 08:26:09;;;;;;;23.17;12.90;;;0.50;99.90;;;;;;5032924;28;20032;-67
2022/01/19 08:28:35;;;;;;;25.52;13.15;;;0.50;99.90;;;;;;5032307;28;20513;-67
2022/01/19 08:31:00;;;;;;;25.88;13.60;;;0.50;99.90;;;;;;5033207;28;20040;-67
2022/01/19 08:33:26;;;;;;;27.38;14.00;;;0.60;99.90;;;;;;5037495;28;20138;-67
2022/01/19 08:35:52;;;;;;;22.13;13.30;;;0.60;99.90;;;;;;5036531;28;20660;-67
2022/01/19 08:38:18;;;;;;;21.95;12.60;;;0.70;99.90;;;;;;5032534;28;20048;-68
2022/01/19 08:40:44;;;;;;;24.58;12.75;;;0.70;99.90;;;;;;5031919;28;20493;-68
2022/01/19 08:43:10;;;;;;;21.77;12.73;;;0.70;99.90;;;;;;5032700;28;20032;-68
2022/01/19 08:45:36;;;;;;;27.80;13.30;;;0.70;99.90;;;;;;5032886;28;20032;-68
2022/01/19 08:48:02;;;;;;;22.65;12.10;;;0.80;99.90;;;;;;5032329;28;20512;-67
2022/01/19 08:50:28;;;;;;;26.00;12.82;;;0.80;99.90;;;;;;5031878;28;20060;-68
2022/01/19 08:52:53;;;;;;;26.67;14.75;;;0.80;99.90;;;;;;5033182;28;20036;-68
2022/01/19 08:55:19;;;;;;;27.33;12.70;;;0.80;99.90;;;;;;5036068;28;20400;-67
2022/01/19 08:57:46;;;;;;;25.45;14.02;;;0.80;99.90;;;;;;5041982;28;20463;-68
2022/01/19 09:00:15;;;;;;;23.13;13.13;;;0.90;99.90;;;;;;5035895;28;20024;-68
2022/01/19 09:02:41;;;;;;;23.17;12.82;;;0.90;99.90;;;;;;5036145;28;20396;-68
2022/01/19 09:05:07;;;;;;;26.02;13.57;;;0.90;99.90;;;;;;5036368;28;20029;-68
2022/01/19 09:07:34;;;;;;;26.35;14.23;;;0.90;99.90;;;;;;5035725;28;20077;-68
2022/01/19 09:10:00;;;;;;;26.75;13.13;;;0.90;99.90;;;;;;5034776;28;20033;-67
2022/01/19 09:12:26;;;;;;;22.88;12.48;;;0.90;99.90;;;;;;5037477;28;20110;-67
2022/01/19 09:14:52;;;;;;;23.65;13.32;;;1.00;99.90;;;;;;5052481;28;20048;-67
2022/01/19 09:17:17;;;;;;;25.67;13.45;;;1.00;99.90;;;;;;5051280;28;20028;-67
2022/01/19 09:19:43;;;;;;;25.52;12.93;;;1.00;99.90;;;;;;5035582;28;20021;-67
2022/01/19 09:22:12;;;;;;;26.95;13.23;;;1.10;99.90;;;;;;5035598;28;20021;-68
2022/01/19 09:24:40;;;;;;;22.42;13.40;;;1.20;99.90;;;;;;5035752;28;20036;-67
2022/01/19 09:27:08;;;;;;;22.88;13.05;;;1.20;99.90;;;;;;5036008;28;20057;-68
2022/01/19 09:29:38;;;;;;;29.27;13.32;;;1.20;99.90;;;;;;5037087;28;20021;-68
2022/01/19 09:32:07;;;;;;;21.55;12.23;;;1.20;99.90;;;;;;5044316;28;20029;-68
2022/01/19 09:34:33;;;;;;;24.13;13.32;;;1.30;99.90;;;;;;5051553;28;20044;-68
2022/01/19 09:36:59;;;;;;;22.35;12.82;;;1.30;99.90;;;;;;5037982;28;20747;-67
2022/01/19 09:39:26;;;;;;;27.42;12.68;;;1.30;99.90;;;;;;5049554;28;20063;-67
2022/01/19 09:41:54;;;;;;;24.25;13.13;;;1.30;99.90;;;;;;5039331;28;20098;-68
2022/01/19 09:44:22;;;;;;;27.55;13.85;;;1.30;99.90;;;;;;5048160;28;20027;-68
2022/01/19 09:46:48;;;;;;;24.13;13.13;;;1.30;99.90;;;;;;5036133;28;20036;-68
2022/01/19 09:49:17;;;;;;;28.00;13.65;;;1.30;99.90;;;;;;5035689;28;20070;-68
2022/01/19 09:51:45;;;;;;;20.05;12.57;;;1.40;99.90;;;;;;5035415;28;20407;-68
2022/01/19 09:54:16;;;;;;;23.67;12.90;;;1.40;99.90;;;;;;5043630;28;20021;-68
2022/01/19 09:56:42;;;;;;;21.95;12.80;;;1.40;99.90;;;;;;5051996;28;20053;-68
2022/01/19 09:59:08;;;;;;;25.92;13.02;;;1.50;99.90;;;;;;5035357;28;20055;-68
2022/01/19 10:01:34;;;;;;;20.65;13.00;;;1.50;99.90;;;;;;5035768;28;20039;-68
2022/01/19 10:04:17;;;;;;;25.48;13.48;;;1.50;99.90;;;;;;5035682;28;20111;-68
2022/01/19 10:06:42;;;;;;;;;;;1.60;99.90;;;;;;5032515;28;20056;-68
2022/01/19 10:09:08;;;;;;;20.35;11.18;;;1.60;99.90;;;;;;5049106;28;20315;-68
2022/01/19 10:17:02;;;;;;;21.80;12.55;;;1.70;99.90;;;;;;5053758;28;20075;-68
2022/01/19 10:19:30;;;;;;;17.92;10.98;;;1.80;99.90;;;;;;5035279;28;20028;-68
2022/01/19 10:22:02;;;;;;;20.27;12.23;;;1.80;99.90;;;;;;5035531;28;20035;-68
2022/01/19 10:24:48;;;;;;;;;;;1.80;99.90;;;;;;5035176;28;20412;-68
2022/01/19 10:27:37;;;;;;;22.08;10.57;;;1.90;99.90;;;;;;5035532;28;20434;-68
2022/01/19 10:30:03;;;;;;;18.70;11.25;;;1.90;99.90;;;;;;5036132;28;20030;-68
2022/01/19 10:32:32;;;;;;;17.17;11.73;;;2.00;99.90;;;;;;5034675;28;20028;-68
2022/01/19 10:35:17;;;;;;;19.85;11.02;;;2.00;99.90;;;;;;5031811;28;20124;-68
2022/01/19 10:37:45;;;;;;;19.95;11.73;;;2.10;99.90;;;;;;5015041;28;20057;-68
2022/01/19 10:40:19;;;;;;;22.17;10.95;;;2.10;99.90;;;;;;5025886;28;20017;-68
2022/01/19 10:42:47;;;;;;;19.13;10.77;;;2.20;99.90;;;;;;5026010;28;20457;-68
2022/01/19 10:45:14;;;;;;;18.90;11.05;;;2.20;99.90;;;;;;5035099;28;20025;-68
2022/01/19 10:47:48;;;;;;;18.55;11.27;;;2.30;99.90;;;;;;5034289;28;20057;-68
2022/01/19 10:50:31;;;;;;;18.33;10.60;;;2.30;99.90;;;;;;5035068;28;20122;-68
2022/01/19 10:53:00;;;;;;;19.02;10.70;;;2.40;99.90;;;;;;5043926;28;20037;-68
2022/01/19 10:55:32;;;;;;;18.42;11.27;;;2.50;99.90;;;;;;5034622;28;20040;-68
2022/01/19 10:58:00;;;;;;;18.58;10.63;;;2.60;99.90;;;;;;5034128;28;20036;-68
2022/01/19 11:00:31;;;;;;;15.43;9.43;;;2.60;99.90;;;;;;5033138;28;20032;-68
2022/01/19 11:03:12;;;;;;;16.00;9.63;;;2.70;99.90;;;;;;5033856;28;20025;-68
2022/01/19 11:05:49;;;;;;;15.10;9.07;;;2.80;99.90;;;;;;5030466;28;20508;-68
2022/01/19 11:08:18;;;;;;;13.05;9.10;;;2.90;99.90;;;;;;5031202;28;20036;-68
2022/01/19 11:10:48;;;;;;;14.18;9.02;;;2.90;99.90;;;;;;5034978;28;20029;-68
2022/01/19 11:13:17;;;;;;;16.10;8.75;;;3.00;99.90;;;;;;5041112;28;20025;-68
2022/01/19 11:15:43;;;;;;;15.77;8.95;;;3.10;99.90;;;;;;5053500;28;20112;-69
2022/01/19 11:18:10;;;;;;;16.73;8.85;;;3.10;99.90;;;;;;5041142;28;20025;-69
2022/01/19 11:20:47;;;;;;;15.20;8.55;;;3.20;99.90;;;;;;5034086;28;20054;-69
2022/01/19 11:23:45;;;;;;;13.40;8.93;;;3.20;99.90;;;;;;5034338;28;20029;-69
2022/01/19 11:26:22;;;;;;;41.67;15.07;;;3.20;99.90;;;;;;5044934;28;20500;-69
2022/01/19 11:31:37;;;;;;;14.20;8.57;;;3.40;99.90;;;;;;5051344;28;20060;-69
2022/01/19 11:34:04;;;;;;;13.93;8.70;;;3.40;99.90;;;;;;5050547;28;20036;-67
2022/01/19 11:36:42;;;;;;;15.02;8.65;;;3.50;99.90;;;;;;5034027;28;20055;-67
2022/01/19 11:39:23;;;;;;;12.73;6.85;;;3.60;99.90;;;;;;5025187;28;20036;-68
2022/01/19 11:41:59;;;;;;;11.73;7.03;;;3.70;99.90;;;;;;5031990;28;20032;-67
2022/01/19 11:44:28;;;;;;;11.05;7.53;;;3.80;99.90;;;;;;5027552;28;20048;-68
2022/01/19 11:46:55;;;;;;;10.77;6.00;;;3.90;99.90;;;;;;5044072;28;20030;-67
2022/01/19 11:49:46;;;;;;;9.07;6.07;;;3.90;99.90;;;;;;5031185;28;20055;-67
2022/01/19 11:52:15;;;;;;;10.27;6.47;;;4.00;99.90;;;;;;5029512;28;20550;-68
2022/01/19 11:54:40;;;;;;;10.95;6.68;;;4.10;99.90;;;;;;5033014;28;20349;-68
2022/01/19 11:57:26;;;;;;;9.18;6.10;;;4.20;99.90;;;;;;5032273;28;20025;-67
2022/01/19 12:00:05;;;;;;;11.65;7.05;;;4.20;99.90;;;;;;5029517;28;20029;-67
2022/01/19 12:02:37;;;;;;;10.70;6.25;;;4.30;99.90;;;;;;5047395;28;20021;-68
2022/01/19 12:05:19;;;;;;;12.75;6.95;;;4.40;99.90;;;;;;5029752;28;20037;-68
2022/01/19 12:07:53;;;;;;;11.55;7.22;;;4.40;99.90;;;;;;5032559;28;20484;-68
2022/01/19 12:10:39;;;;;;;11.40;7.18;;;4.50;99.90;;;;;;5033528;28;20040;-68
2022/01/19 12:13:55;;;;;;;13.27;7.88;;;4.60;99.90;;;;;;5033321;28;20484;-68
2022/01/19 12:18:58;;;;;;;10.07;6.90;;;4.90;99.90;;;;;;5050652;28;20051;-68
2022/01/19 12:22:05;;;;;;;13.32;8.45;;;5.10;99.90;;;;;;5033192;28;20031;-67
2022/01/19 12:24:34;;;;;;;11.68;7.18;;;5.40;99.90;;;;;;5032636;28;20032;-68
2022/01/19 12:27:31;;;;;;;13.32;8.27;;;5.50;99.90;;;;;;5037332;28;20519;-68
2022/01/19 12:30:13;;;;;;;13.57;7.80;;;5.70;99.90;;;;;;5043091;28;20087;-68
2022/01/19 12:32:47;;;;;;;12.88;8.50;;;5.80;99.90;;;;;;5016076;28;20022;-68
2022/01/19 12:35:31;;;;;;;13.30;7.47;;;5.80;99.90;;;;;;5020418;28;20771;-68
2022/01/19 12:37:58;;;;;;;11.73;6.95;;;5.70;99.90;;;;;;5036048;28;20021;-68
2022/01/19 12:40:40;;;;;;;11.25;7.45;;;5.60;99.90;;;;;;5034051;28;20025;-68
2022/01/19 12:43:09;;;;;;;12.97;7.60;;;5.50;99.90;;;;;;5032986;28;20028;-67
2022/01/19 12:45:45;;;;;;;13.25;7.82;;;5.50;99.90;;;;;;5043519;28;20351;-67
2022/01/19 12:48:14;;;;;;;12.40;7.65;;;5.60;99.90;;;;;;5044510;28;20037;-68
2022/01/19 12:50:43;;;;;;;11.73;7.22;;;5.70;99.90;;;;;;5034995;28;20036;-68
2022/01/19 12:53:17;;;;;;;15.50;7.70;;;5.90;99.90;;;;;;5034541;28;20515;-68
2022/01/19 12:55:47;;;;;;;11.82;7.63;;;5.90;99.90;;;;;;5034722;28;20029;-67
2022/01/19 12:58:21;;;;;;;12.43;7.50;;;5.90;99.90;;;;;;5033191;28;20037;-68
2022/01/19 13:00:51;;;;;;;13.85;7.72;;;6.00;99.90;;;;;;5053110;28;20104;-67
2022/01/19 13:03:27;;;;;;;11.85;7.32;;;6.00;99.90;;;;;;5034874;28;20051;-68
2022/01/19 13:06:00;;;;;;;13.30;7.45;;;6.00;99.90;;;;;;5027910;28;20029;-68
2022/01/19 13:08:45;;;;;;;12.82;7.40;;;5.90;99.90;;;;;;5033692;28;20017;-68
2022/01/19 13:11:27;;;;;;;11.35;7.30;;;5.90;99.90;;;;;;5034245;28;20480;-68
2022/01/19 13:13:59;;;;;;;11.75;6.97;;;5.90;99.90;;;;;;5057386;28;20055;-68
2022/01/19 13:16:31;;;;;;;9.88;6.90;;;5.80;99.90;;;;;;5034775;28;20021;-67
2022/01/19 13:19:16;;;;;;;11.75;7.30;;;5.70;99.90;;;;;;5033138;28;20025;-68
2022/01/19 13:21:46;;;;;;;12.38;6.68;;;5.60;99.90;;;;;;5033239;28;20051;-68
2022/01/19 13:24:27;;;;;;;10.15;6.50;;;5.50;99.90;;;;;;5033770;28;20026;-67
2022/01/19 13:26:59;;;;;;;11.75;6.75;;;5.50;99.90;;;;;;5033212;28;20029;-66
2022/01/19 13:29:34;;;;;;;11.65;6.88;;;5.30;99.90;;;;;;5033159;28;20043;-69
2022/01/19 13:31:59;;;;;;;13.25;7.20;;;5.30;99.90;;;;;;5034340;28;20028;-68
2022/01/19 13:34:26;;;;;;;12.23;7.13;;;5.20;99.90;;;;;;5036095;28;20021;-68
2022/01/19 13:36:54;;;;;;;11.52;7.03;;;5.20;99.90;;;;;;5036378;28;20033;-68
2022/01/19 13:39:22;;;;;;;11.57;6.95;;;5.20;99.90;;;;;;5035083;28;20453;-67
2022/01/19 13:41:51;;;;;;;9.80;6.70;;;5.10;99.90;;;;;;5035163;28;20539;-68
2022/01/19 13:44:22;;;;;;;10.82;7.03;;;5.10;99.90;;;;;;5039181;28;20025;-67
2022/01/19 13:46:48;;;;;;;13.25;7.35;;;5.10;99.90;;;;;;5036135;28;20029;-69
2022/01/19 13:49:13;;;;;;;12.02;6.80;;;5.00;99.90;;;;;;5035066;28;20029;-68
2022/01/19 13:51:43;;;;;;;11.02;6.97;;;5.00;99.90;;;;;;5034805;28;20436;-67
2022/01/19 13:54:09;;;;;;;12.43;7.22;;;5.00;99.90;;;;;;5035608;28;20032;-68
2022/01/19 13:56:41;;;;;;;12.15;7.30;;;5.00;99.90;;;;;;5035627;28;20052;-68
2022/01/19 13:59:15;;;;;;;11.63;6.77;;;5.00;99.90;;;;;;5015138;28;20088;-68
2022/01/19 14:01:49;;;;;;;12.10;7.00;;;5.00;99.90;;;;;;5015874;28;20272;-68
2022/01/19 14:04:15;;;;;;;11.00;6.88;;;5.00;99.90;;;;;;5015807;28;20025;-68
2022/01/19 14:06:44;;;;;;;11.48;7.35;;;5.00;99.90;;;;;;5020413;28;20072;-68
2022/01/19 14:09:19;;;;;;;10.77;7.18;;;5.00;99.90;;;;;;5033806;28;20056;-69
2022/01/19 14:11:47;;;;;;;9.88;6.15;;;5.00;99.90;;;;;;5035316;28;20036;-68
2022/01/19 14:14:26;;;;;;;11.30;6.35;;;5.00;99.90;;;;;;5036922;28;20059;-68
2022/01/19 14:16:55;;;;;;;9.07;6.05;;;4.90;99.90;;;;;;5035489;28;20021;-68
2022/01/19 14:19:23;;;;;;;9.85;6.35;;;4.90;99.90;;;;;;5034694;28;20041;-67
2022/01/19 14:22:08;;;;;;;10.38;6.45;;;4.90;99.90;;;;;;5035112;28;20446;-68
2022/01/19 14:24:49;;;;;;;12.23;6.20;;;4.90;99.90;;;;;;5034891;28;20079;-67
2022/01/19 14:27:42;;;;;;;9.95;5.93;;;4.80;99.90;;;;;;5033522;28;20021;-68
2022/01/19 14:30:24;;;;;;;12.88;7.45;;;4.80;99.90;;;;;;5025441;28;20040;-68